sensor_id;sensor_type;location;lat;lon;timestamp;P1;durP1;ratioP1;P2;durP2;ratioP2
37527;SDS011;23372;52.050;4.810;2023-12-07T00:00:05;16.97;;;9.40;;
37527;SDS011;23372;52.050;4.810;2023-12-07T00:02:31;18.93;;;10.13;;
37527;SDS011;23372;52.050;4.810;2023-12-07T00:04:57;16.73;;;10.50;;
37527;SDS011;23372;52.050;4.810;2023-12-07T00:07:22;15.70;;;10.10;;
37527;SDS011;23372;52.050;4.810;2023-12-07T00:09:48;18.53;;;11.37;;
37527;SDS011;23372;52.050;4.810;2023-12-07T00:12:13;18.10;;;11.13;;
37527;SDS011;23372;52.050;4.810;2023-12-07T00:14:39;25.87;;;11.33;;
37527;SDS011;23372;52.050;4.810;2023-12-07T00:17:04;18.77;;;11.27;;
37527;SDS011;23372;52.050;4.810;2023-12-07T00:19:30;23.47;;;10.90;;
37527;SDS011;23372;52.050;4.810;2023-12-07T00:21:55;18.40;;;11.47;;
37527;SDS011;23372;52.050;4.810;2023-12-07T00:24:21;17.33;;;9.90;;
37527;SDS011;23372;52.050;4.810;2023-12-07T00:26:46;21.87;;;11.30;;
37527;SDS011;23372;52.050;4.810;2023-12-07T00:29:13;16.17;;;10.00;;
37527;SDS011;23372;52.050;4.810;2023-12-07T00:31:38;17.33;;;10.10;;
37527;SDS011;23372;52.050;4.810;2023-12-07T00:34:04;18.07;;;9.70;;
37527;SDS011;23372;52.050;4.810;2023-12-07T00:36:30;17.27;;;10.27;;
37527;SDS011;23372;52.050;4.810;2023-12-07T00:38:56;14.77;;;9.77;;
37527;SDS011;23372;52.050;4.810;2023-12-07T00:41:22;15.87;;;9.60;;
37527;SDS011;23372;52.050;4.810;2023-12-07T00:43:47;16.27;;;9.80;;
37527;SDS011;23372;52.050;4.810;2023-12-07T00:46:13;19.70;;;10.33;;
37527;SDS011;23372;52.050;4.810;2023-12-07T00:48:38;14.67;;;8.87;;
37527;SDS011;23372;52.050;4.810;2023-12-07T00:51:05;18.03;;;9.37;;
37527;SDS011;23372;52.050;4.810;2023-12-07T00:53:31;16.63;;;9.50;;
37527;SDS011;23372;52.050;4.810;2023-12-07T00:55:57;16.10;;;8.97;;
37527;SDS011;23372;52.050;4.810;2023-12-07T00:58:22;15.80;;;9.13;;
37527;SDS011;23372;52.050;4.810;2023-12-07T01:00:48;16.67;;;9.23;;
37527;SDS011;23372;52.050;4.810;2023-12-07T01:03:14;16.33;;;9.63;;
37527;SDS011;23372;52.050;4.810;2023-12-07T01:05:39;15.63;;;8.50;;
37527;SDS011;23372;52.050;4.810;2023-12-07T01:08:05;15.00;;;8.70;;
37527;SDS011;23372;52.050;4.810;2023-12-07T01:10:30;21.67;;;9.70;;
37527;SDS011;23372;52.050;4.810;2023-12-07T01:12:57;13.87;;;9.10;;
37527;SDS011;23372;52.050;4.810;2023-12-07T01:15:22;13.87;;;9.20;;
37527;SDS011;23372;52.050;4.810;2023-12-07T01:17:48;14.93;;;8.50;;
37527;SDS011;23372;52.050;4.810;2023-12-07T01:20:13;15.87;;;9.07;;
37527;SDS011;23372;52.050;4.810;2023-12-07T01:22:39;13.03;;;8.37;;
37527;SDS011;23372;52.050;4.810;2023-12-07T01:25:06;14.20;;;8.80;;
37527;SDS011;23372;52.050;4.810;2023-12-07T01:27:32;39.43;;;9.57;;
37527;SDS011;23372;52.050;4.810;2023-12-07T01:29:58;161.33;;;16.63;;
37527;SDS011;23372;52.050;4.810;2023-12-07T01:32:24;186.80;;;17.23;;
37527;SDS011;23372;52.050;4.810;2023-12-07T01:34:49;128.50;;;17.57;;
37527;SDS011;23372;52.050;4.810;2023-12-07T01:37:15;25.50;;;8.67;;
37527;SDS011;23372;52.050;4.810;2023-12-07T01:39:43;33.67;;;8.23;;
37527;SDS011;23372;52.050;4.810;2023-12-07T01:42:09;49.33;;;8.80;;
37527;SDS011;23372;52.050;4.810;2023-12-07T01:44:37;97.43;;;11.67;;
37527;SDS011;23372;52.050;4.810;2023-12-07T01:47:03;85.20;;;10.10;;
37527;SDS011;23372;52.050;4.810;2023-12-07T01:49:31;168.83;;;14.63;;
37527;SDS011;23372;52.050;4.810;2023-12-07T01:51:56;78.20;;;9.20;;
37527;SDS011;23372;52.050;4.810;2023-12-07T01:54:23;89.73;;;9.50;;
37527;SDS011;23372;52.050;4.810;2023-12-07T01:56:50;114.90;;;10.50;;
37527;SDS011;23372;52.050;4.810;2023-12-07T01:59:16;38.80;;;8.20;;
37527;SDS011;23372;52.050;4.810;2023-12-07T02:01:41;99.13;;;11.83;;
37527;SDS011;23372;52.050;4.810;2023-12-07T02:04:09;26.17;;;8.17;;
37527;SDS011;23372;52.050;4.810;2023-12-07T02:06:35;124.17;;;17.30;;
37527;SDS011;23372;52.050;4.810;2023-12-07T02:09:00;75.63;;;10.53;;
37527;SDS011;23372;52.050;4.810;2023-12-07T02:11:26;50.77;;;9.20;;
37527;SDS011;23372;52.050;4.810;2023-12-07T02:13:52;132.70;;;13.10;;
37527;SDS011;23372;52.050;4.810;2023-12-07T02:21:40;101.10;;;12.20;;
37527;SDS011;23372;52.050;4.810;2023-12-07T02:24:16;37.57;;;9.97;;
37527;SDS011;23372;52.050;4.810;2023-12-07T02:26:46;20.77;;;7.53;;
37527;SDS011;23372;52.050;4.810;2023-12-07T02:29:11;35.00;;;11.90;;
37527;SDS011;23372;52.050;4.810;2023-12-07T02:31:37;17.40;;;8.23;;
37527;SDS011;23372;52.050;4.810;2023-12-07T02:34:03;14.10;;;7.70;;
37527;SDS011;23372;52.050;4.810;2023-12-07T02:36:28;13.80;;;8.73;;
37527;SDS011;23372;52.050;4.810;2023-12-07T02:38:56;14.10;;;8.50;;
37527;SDS011;23372;52.050;4.810;2023-12-07T02:41:25;21.07;;;8.43;;
37527;SDS011;23372;52.050;4.810;2023-12-07T02:43:52;16.33;;;8.63;;
37527;SDS011;23372;52.050;4.810;2023-12-07T02:46:18;13.80;;;8.60;;
37527;SDS011;23372;52.050;4.810;2023-12-07T02:48:43;14.27;;;8.00;;
37527;SDS011;23372;52.050;4.810;2023-12-07T02:51:09;17.77;;;9.93;;
37527;SDS011;23372;52.050;4.810;2023-12-07T02:53:34;18.87;;;9.47;;
37527;SDS011;23372;52.050;4.810;2023-12-07T02:56:00;42.97;;;10.60;;
37527;SDS011;23372;52.050;4.810;2023-12-07T02:58:25;19.03;;;10.27;;
37527;SDS011;23372;52.050;4.810;2023-12-07T03:00:51;17.23;;;10.67;;
37527;SDS011;23372;52.050;4.810;2023-12-07T03:03:16;19.07;;;10.43;;
37527;SDS011;23372;52.050;4.810;2023-12-07T03:05:42;18.63;;;11.20;;
37527;SDS011;23372;52.050;4.810;2023-12-07T03:08:07;21.60;;;11.87;;
37527;SDS011;23372;52.050;4.810;2023-12-07T03:10:33;19.47;;;12.70;;
37527;SDS011;23372;52.050;4.810;2023-12-07T03:12:58;20.97;;;12.60;;
37527;SDS011;23372;52.050;4.810;2023-12-07T03:15:24;20.90;;;12.43;;
37527;SDS011;23372;52.050;4.810;2023-12-07T03:17:51;23.20;;;11.83;;
37527;SDS011;23372;52.050;4.810;2023-12-07T03:20:16;17.53;;;11.50;;
37527;SDS011;23372;52.050;4.810;2023-12-07T03:22:42;22.63;;;12.73;;
37527;SDS011;23372;52.050;4.810;2023-12-07T03:25:08;22.27;;;13.17;;
37527;SDS011;23372;52.050;4.810;2023-12-07T03:27:33;19.17;;;11.80;;
37527;SDS011;23372;52.050;4.810;2023-12-07T03:29:59;23.33;;;13.40;;
37527;SDS011;23372;52.050;4.810;2023-12-07T03:32:25;19.20;;;11.47;;
37527;SDS011;23372;52.050;4.810;2023-12-07T03:34:50;19.77;;;12.40;;
37527;SDS011;23372;52.050;4.810;2023-12-07T03:37:16;23.73;;;13.43;;
37527;SDS011;23372;52.050;4.810;2023-12-07T03:39:41;23.93;;;14.13;;
37527;SDS011;23372;52.050;4.810;2023-12-07T03:42:07;24.50;;;14.23;;
37527;SDS011;23372;52.050;4.810;2023-12-07T03:44:32;20.07;;;12.57;;
37527;SDS011;23372;52.050;4.810;2023-12-07T03:46:58;19.70;;;11.53;;
37527;SDS011;23372;52.050;4.810;2023-12-07T03:49:23;20.37;;;10.87;;
37527;SDS011;23372;52.050;4.810;2023-12-07T03:51:49;22.57;;;11.87;;
37527;SDS011;23372;52.050;4.810;2023-12-07T03:54:14;25.47;;;13.80;;
37527;SDS011;23372;52.050;4.810;2023-12-07T03:56:40;25.03;;;13.10;;
37527;SDS011;23372;52.050;4.810;2023-12-07T03:59:06;22.13;;;13.17;;
37527;SDS011;23372;52.050;4.810;2023-12-07T04:01:31;22.33;;;12.13;;
37527;SDS011;23372;52.050;4.810;2023-12-07T04:03:57;21.87;;;13.43;;
37527;SDS011;23372;52.050;4.810;2023-12-07T04:06:24;28.13;;;14.17;;
37527;SDS011;23372;52.050;4.810;2023-12-07T04:08:50;26.23;;;14.93;;
37527;SDS011;23372;52.050;4.810;2023-12-07T04:11:15;24.50;;;14.47;;
37527;SDS011;23372;52.050;4.810;2023-12-07T04:13:41;27.97;;;15.80;;
37527;SDS011;23372;52.050;4.810;2023-12-07T04:16:08;25.77;;;15.20;;
37527;SDS011;23372;52.050;4.810;2023-12-07T04:18:34;27.33;;;15.40;;
37527;SDS011;23372;52.050;4.810;2023-12-07T04:21:00;22.00;;;14.40;;
37527;SDS011;23372;52.050;4.810;2023-12-07T04:23:26;28.93;;;15.40;;
37527;SDS011;23372;52.050;4.810;2023-12-07T04:25:51;28.90;;;15.67;;
37527;SDS011;23372;52.050;4.810;2023-12-07T04:28:17;26.50;;;16.00;;
37527;SDS011;23372;52.050;4.810;2023-12-07T04:30:43;29.17;;;15.47;;
37527;SDS011;23372;52.050;4.810;2023-12-07T04:33:08;29.37;;;16.63;;
37527;SDS011;23372;52.050;4.810;2023-12-07T04:35:34;28.63;;;18.03;;
37527;SDS011;23372;52.050;4.810;2023-12-07T04:37:59;31.87;;;18.03;;
37527;SDS011;23372;52.050;4.810;2023-12-07T04:40:25;34.33;;;18.63;;
37527;SDS011;23372;52.050;4.810;2023-12-07T04:42:51;36.97;;;17.73;;
37527;SDS011;23372;52.050;4.810;2023-12-07T04:45:16;34.43;;;19.17;;
37527;SDS011;23372;52.050;4.810;2023-12-07T04:47:42;52.17;;;19.93;;
37527;SDS011;23372;52.050;4.810;2023-12-07T04:50:08;75.03;;;21.17;;
37527;SDS011;23372;52.050;4.810;2023-12-07T04:52:34;91.27;;;22.07;;
37527;SDS011;23372;52.050;4.810;2023-12-07T04:55:00;125.30;;;26.00;;
37527;SDS011;23372;52.050;4.810;2023-12-07T04:57:26;140.00;;;26.20;;
37527;SDS011;23372;52.050;4.810;2023-12-07T04:59:51;150.20;;;26.67;;
37527;SDS011;23372;52.050;4.810;2023-12-07T05:02:17;173.97;;;31.50;;
37527;SDS011;23372;52.050;4.810;2023-12-07T05:04:43;139.90;;;27.50;;
37527;SDS011;23372;52.050;4.810;2023-12-07T05:07:12;141.57;;;30.13;;
37527;SDS011;23372;52.050;4.810;2023-12-07T05:09:38;142.93;;;29.07;;
37527;SDS011;23372;52.050;4.810;2023-12-07T05:12:04;120.77;;;26.67;;
37527;SDS011;23372;52.050;4.810;2023-12-07T05:14:30;159.33;;;32.87;;
37527;SDS011;23372;52.050;4.810;2023-12-07T05:16:56;186.53;;;33.10;;
37527;SDS011;23372;52.050;4.810;2023-12-07T05:19:23;178.60;;;32.43;;
37527;SDS011;23372;52.050;4.810;2023-12-07T05:21:48;167.57;;;31.60;;
37527;SDS011;23372;52.050;4.810;2023-12-07T05:24:14;142.87;;;34.70;;
37527;SDS011;23372;52.050;4.810;2023-12-07T05:26:41;144.57;;;31.50;;
37527;SDS011;23372;52.050;4.810;2023-12-07T05:29:07;176.60;;;32.93;;
37527;SDS011;23372;52.050;4.810;2023-12-07T05:31:32;127.93;;;30.33;;
37527;SDS011;23372;52.050;4.810;2023-12-07T05:33:58;126.17;;;31.20;;
37527;SDS011;23372;52.050;4.810;2023-12-07T05:36:24;130.13;;;30.00;;
37527;SDS011;23372;52.050;4.810;2023-12-07T05:38:51;143.93;;;32.27;;
37527;SDS011;23372;52.050;4.810;2023-12-07T05:41:16;127.73;;;30.73;;
37527;SDS011;23372;52.050;4.810;2023-12-07T05:43:42;144.90;;;33.07;;
37527;SDS011;23372;52.050;4.810;2023-12-07T05:46:08;134.23;;;29.27;;
37527;SDS011;23372;52.050;4.810;2023-12-07T05:48:33;145.30;;;32.80;;
37527;SDS011;23372;52.050;4.810;2023-12-07T05:50:59;154.83;;;31.67;;
37527;SDS011;23372;52.050;4.810;2023-12-07T05:53:26;135.37;;;29.87;;
37527;SDS011;23372;52.050;4.810;2023-12-07T05:55:52;154.33;;;30.17;;
37527;SDS011;23372;52.050;4.810;2023-12-07T05:58:17;139.37;;;28.67;;
37527;SDS011;23372;52.050;4.810;2023-12-07T06:00:43;168.33;;;30.77;;
37527;SDS011;23372;52.050;4.810;2023-12-07T06:03:11;128.20;;;29.67;;
37527;SDS011;23372;52.050;4.810;2023-12-07T06:05:38;159.50;;;29.80;;
37527;SDS011;23372;52.050;4.810;2023-12-07T06:08:03;183.03;;;33.27;;
37527;SDS011;23372;52.050;4.810;2023-12-07T06:10:29;147.03;;;29.00;;
37527;SDS011;23372;52.050;4.810;2023-12-07T06:12:55;152.57;;;28.33;;
37527;SDS011;23372;52.050;4.810;2023-12-07T06:15:21;156.43;;;28.10;;
37527;SDS011;23372;52.050;4.810;2023-12-07T06:17:47;167.90;;;29.07;;
37527;SDS011;23372;52.050;4.810;2023-12-07T06:20:13;159.83;;;29.27;;
37527;SDS011;23372;52.050;4.810;2023-12-07T06:22:38;116.37;;;26.30;;
37527;SDS011;23372;52.050;4.810;2023-12-07T06:25:04;144.87;;;27.50;;
37527;SDS011;23372;52.050;4.810;2023-12-07T06:27:30;174.07;;;25.57;;
37527;SDS011;23372;52.050;4.810;2023-12-07T06:29:56;144.33;;;25.93;;
37527;SDS011;23372;52.050;4.810;2023-12-07T06:32:21;140.07;;;26.03;;
37527;SDS011;23372;52.050;4.810;2023-12-07T06:34:47;152.97;;;28.80;;
37527;SDS011;23372;52.050;4.810;2023-12-07T06:37:12;106.80;;;24.30;;
37527;SDS011;23372;52.050;4.810;2023-12-07T06:39:38;137.77;;;24.40;;
37527;SDS011;23372;52.050;4.810;2023-12-07T06:42:04;143.93;;;24.90;;
37527;SDS011;23372;52.050;4.810;2023-12-07T06:44:29;152.57;;;26.33;;
37527;SDS011;23372;52.050;4.810;2023-12-07T06:46:55;131.17;;;25.03;;
37527;SDS011;23372;52.050;4.810;2023-12-07T06:49:20;122.93;;;26.03;;
37527;SDS011;23372;52.050;4.810;2023-12-07T06:51:46;95.10;;;22.77;;
37527;SDS011;23372;52.050;4.810;2023-12-07T06:54:12;115.87;;;22.83;;
37527;SDS011;23372;52.050;4.810;2023-12-07T06:56:38;178.77;;;29.70;;
37527;SDS011;23372;52.050;4.810;2023-12-07T06:59:04;152.57;;;28.33;;
37527;SDS011;23372;52.050;4.810;2023-12-07T07:01:30;107.57;;;18.70;;
37527;SDS011;23372;52.050;4.810;2023-12-07T07:03:55;123.63;;;20.63;;
37527;SDS011;23372;52.050;4.810;2023-12-07T07:06:21;138.77;;;22.23;;
37527;SDS011;23372;52.050;4.810;2023-12-07T07:08:47;157.73;;;22.00;;
37527;SDS011;23372;52.050;4.810;2023-12-07T07:11:14;124.33;;;20.20;;
37527;SDS011;23372;52.050;4.810;2023-12-07T07:13:40;125.80;;;20.33;;
37527;SDS011;23372;52.050;4.810;2023-12-07T07:16:07;100.73;;;18.80;;
37527;SDS011;23372;52.050;4.810;2023-12-07T07:18:33;114.17;;;18.67;;
37527;SDS011;23372;52.050;4.810;2023-12-07T07:20:58;125.60;;;19.83;;
37527;SDS011;23372;52.050;4.810;2023-12-07T07:23:24;121.30;;;19.00;;
37527;SDS011;23372;52.050;4.810;2023-12-07T07:25:49;120.87;;;18.27;;
37527;SDS011;23372;52.050;4.810;2023-12-07T07:28:15;114.57;;;18.23;;
37527;SDS011;23372;52.050;4.810;2023-12-07T07:30:40;112.50;;;18.37;;
37527;SDS011;23372;52.050;4.810;2023-12-07T07:33:06;126.40;;;18.40;;
37527;SDS011;23372;52.050;4.810;2023-12-07T07:35:31;113.17;;;21.40;;
37527;SDS011;23372;52.050;4.810;2023-12-07T07:37:57;105.50;;;19.73;;
37527;SDS011;23372;52.050;4.810;2023-12-07T07:40:23;105.60;;;18.27;;
37527;SDS011;23372;52.050;4.810;2023-12-07T07:42:49;98.07;;;16.57;;
37527;SDS011;23372;52.050;4.810;2023-12-07T07:45:15;84.17;;;15.87;;
37527;SDS011;23372;52.050;4.810;2023-12-07T07:47:41;104.17;;;18.30;;
37527;SDS011;23372;52.050;4.810;2023-12-07T07:50:07;113.17;;;17.23;;
37527;SDS011;23372;52.050;4.810;2023-12-07T07:52:33;102.87;;;17.43;;
37527;SDS011;23372;52.050;4.810;2023-12-07T07:55:03;113.07;;;17.20;;
37527;SDS011;23372;52.050;4.810;2023-12-07T07:57:29;77.13;;;15.97;;
37527;SDS011;23372;52.050;4.810;2023-12-07T07:59:58;104.10;;;20.53;;
37527;SDS011;23372;52.050;4.810;2023-12-07T08:02:24;90.53;;;24.47;;
37527;SDS011;23372;52.050;4.810;2023-12-07T08:04:49;72.23;;;17.73;;
37527;SDS011;23372;52.050;4.810;2023-12-07T08:07:16;88.20;;;18.07;;
37527;SDS011;23372;52.050;4.810;2023-12-07T08:09:42;112.63;;;18.17;;
37527;SDS011;23372;52.050;4.810;2023-12-07T08:12:07;74.97;;;16.90;;
37527;SDS011;23372;52.050;4.810;2023-12-07T08:14:35;82.37;;;19.37;;
37527;SDS011;23372;52.050;4.810;2023-12-07T08:17:01;70.87;;;15.70;;
37527;SDS011;23372;52.050;4.810;2023-12-07T08:19:27;70.40;;;17.20;;
37527;SDS011;23372;52.050;4.810;2023-12-07T08:21:52;81.73;;;15.57;;
37527;SDS011;23372;52.050;4.810;2023-12-07T08:24:18;67.17;;;14.60;;
37527;SDS011;23372;52.050;4.810;2023-12-07T08:26:43;78.87;;;16.77;;
37527;SDS011;23372;52.050;4.810;2023-12-07T08:29:09;81.10;;;18.07;;
37527;SDS011;23372;52.050;4.810;2023-12-07T08:31:34;77.87;;;16.73;;
37527;SDS011;23372;52.050;4.810;2023-12-07T08:34:00;91.77;;;17.53;;
37527;SDS011;23372;52.050;4.810;2023-12-07T08:36:26;72.33;;;16.93;;
37527;SDS011;23372;52.050;4.810;2023-12-07T08:38:51;80.00;;;16.23;;
37527;SDS011;23372;52.050;4.810;2023-12-07T08:41:17;66.73;;;15.83;;
37527;SDS011;23372;52.050;4.810;2023-12-07T08:43:43;88.13;;;18.10;;
37527;SDS011;23372;52.050;4.810;2023-12-07T08:46:09;88.60;;;16.17;;
37527;SDS011;23372;52.050;4.810;2023-12-07T08:48:35;88.67;;;16.73;;
37527;SDS011;23372;52.050;4.810;2023-12-07T08:51:02;87.23;;;17.73;;
37527;SDS011;23372;52.050;4.810;2023-12-07T08:53:28;77.03;;;15.90;;
37527;SDS011;23372;52.050;4.810;2023-12-07T08:55:54;80.93;;;15.87;;
37527;SDS011;23372;52.050;4.810;2023-12-07T08:58:20;72.67;;;15.63;;
37527;SDS011;23372;52.050;4.810;2023-12-07T09:00:46;86.73;;;17.60;;
37527;SDS011;23372;52.050;4.810;2023-12-07T09:03:11;84.73;;;18.20;;
37527;SDS011;23372;52.050;4.810;2023-12-07T09:05:37;82.83;;;16.73;;
37527;SDS011;23372;52.050;4.810;2023-12-07T09:08:02;79.87;;;17.87;;
37527;SDS011;23372;52.050;4.810;2023-12-07T09:10:28;63.33;;;16.73;;
37527;SDS011;23372;52.050;4.810;2023-12-07T09:12:54;70.87;;;17.70;;
37527;SDS011;23372;52.050;4.810;2023-12-07T09:15:19;83.23;;;17.00;;
37527;SDS011;23372;52.050;4.810;2023-12-07T09:17:46;79.63;;;18.23;;
37527;SDS011;23372;52.050;4.810;2023-12-07T09:20:13;90.53;;;18.90;;
37527;SDS011;23372;52.050;4.810;2023-12-07T09:22:43;82.70;;;18.40;;
37527;SDS011;23372;52.050;4.810;2023-12-07T09:25:09;98.40;;;18.27;;
37527;SDS011;23372;52.050;4.810;2023-12-07T09:27:35;90.30;;;17.17;;
37527;SDS011;23372;52.050;4.810;2023-12-07T09:30:03;93.37;;;17.77;;
37527;SDS011;23372;52.050;4.810;2023-12-07T09:32:35;106.10;;;21.07;;
37527;SDS011;23372;52.050;4.810;2023-12-07T09:35:06;113.00;;;21.50;;
37527;SDS011;23372;52.050;4.810;2023-12-07T09:37:33;116.87;;;20.20;;
37527;SDS011;23372;52.050;4.810;2023-12-07T09:39:59;94.33;;;19.23;;
37527;SDS011;23372;52.050;4.810;2023-12-07T09:42:26;99.97;;;21.57;;
37527;SDS011;23372;52.050;4.810;2023-12-07T09:44:52;122.17;;;22.13;;
37527;SDS011;23372;52.050;4.810;2023-12-07T09:47:17;111.80;;;20.57;;
37527;SDS011;23372;52.050;4.810;2023-12-07T09:49:43;82.03;;;20.13;;
37527;SDS011;23372;52.050;4.810;2023-12-07T09:52:10;142.43;;;21.37;;
37527;SDS011;23372;52.050;4.810;2023-12-07T09:54:39;136.43;;;24.17;;
37527;SDS011;23372;52.050;4.810;2023-12-07T09:57:06;100.67;;;22.17;;
37527;SDS011;23372;52.050;4.810;2023-12-07T09:59:34;130.47;;;23.03;;
37527;SDS011;23372;52.050;4.810;2023-12-07T10:02:01;120.77;;;23.17;;
37527;SDS011;23372;52.050;4.810;2023-12-07T10:04:26;119.70;;;21.57;;
37527;SDS011;23372;52.050;4.810;2023-12-07T10:06:52;110.80;;;21.43;;
37527;SDS011;23372;52.050;4.810;2023-12-07T10:09:19;92.50;;;20.80;;
37527;SDS011;23372;52.050;4.810;2023-12-07T10:11:46;115.63;;;21.73;;
37527;SDS011;23372;52.050;4.810;2023-12-07T10:14:12;118.50;;;25.87;;
37527;SDS011;23372;52.050;4.810;2023-12-07T10:16:39;127.43;;;23.90;;
37527;SDS011;23372;52.050;4.810;2023-12-07T10:19:18;142.43;;;25.10;;
37527;SDS011;23372;52.050;4.810;2023-12-07T10:21:47;129.07;;;23.73;;
37527;SDS011;23372;52.050;4.810;2023-12-07T10:24:16;113.13;;;23.13;;
37527;SDS011;23372;52.050;4.810;2023-12-07T10:26:44;141.53;;;25.03;;
37527;SDS011;23372;52.050;4.810;2023-12-07T10:29:10;117.97;;;22.47;;
37527;SDS011;23372;52.050;4.810;2023-12-07T10:31:36;123.80;;;24.33;;
37527;SDS011;23372;52.050;4.810;2023-12-07T10:34:02;96.00;;;22.43;;
37527;SDS011;23372;52.050;4.810;2023-12-07T10:36:29;130.17;;;25.17;;
37527;SDS011;23372;52.050;4.810;2023-12-07T10:38:55;91.07;;;22.07;;
37527;SDS011;23372;52.050;4.810;2023-12-07T10:41:22;123.23;;;23.93;;
37527;SDS011;23372;52.050;4.810;2023-12-07T10:43:49;104.40;;;21.03;;
37527;SDS011;23372;52.050;4.810;2023-12-07T10:46:25;78.13;;;19.80;;
37527;SDS011;23372;52.050;4.810;2023-12-07T10:48:55;95.80;;;22.27;;
37527;SDS011;23372;52.050;4.810;2023-12-07T10:51:41;104.60;;;23.40;;
37527;SDS011;23372;52.050;4.810;2023-12-07T10:54:10;98.33;;;22.00;;
37527;SDS011;23372;52.050;4.810;2023-12-07T10:56:44;96.17;;;20.90;;
37527;SDS011;23372;52.050;4.810;2023-12-07T10:59:11;83.43;;;21.43;;
37527;SDS011;23372;52.050;4.810;2023-12-07T11:01:40;91.63;;;20.43;;
37527;SDS011;23372;52.050;4.810;2023-12-07T11:04:08;67.67;;;18.90;;
37527;SDS011;23372;52.050;4.810;2023-12-07T11:06:37;95.17;;;23.30;;
37527;SDS011;23372;52.050;4.810;2023-12-07T11:09:06;86.43;;;22.40;;
37527;SDS011;23372;52.050;4.810;2023-12-07T11:14:09;83.90;;;20.30;;
37527;SDS011;23372;52.050;4.810;2023-12-07T11:16:41;91.07;;;23.87;;
37527;SDS011;23372;52.050;4.810;2023-12-07T11:22:01;83.37;;;24.07;;
37527;SDS011;23372;52.050;4.810;2023-12-07T11:24:28;96.30;;;23.57;;
37527;SDS011;23372;52.050;4.810;2023-12-07T11:26:54;96.17;;;25.47;;
37527;SDS011;23372;52.050;4.810;2023-12-07T11:29:20;96.00;;;23.83;;
37527;SDS011;23372;52.050;4.810;2023-12-07T11:31:47;84.80;;;22.80;;
37527;SDS011;23372;52.050;4.810;2023-12-07T11:34:13;79.87;;;24.80;;
37527;SDS011;23372;52.050;4.810;2023-12-07T11:36:54;95.70;;;27.67;;
37527;SDS011;23372;52.050;4.810;2023-12-07T11:39:21;67.83;;;23.30;;
37527;SDS011;23372;52.050;4.810;2023-12-07T11:41:51;68.90;;;22.70;;
37527;SDS011;23372;52.050;4.810;2023-12-07T11:44:19;81.03;;;24.87;;
37527;SDS011;23372;52.050;4.810;2023-12-07T11:46:44;70.07;;;23.33;;
37527;SDS011;23372;52.050;4.810;2023-12-07T11:49:10;80.80;;;26.50;;
37527;SDS011;23372;52.050;4.810;2023-12-07T11:51:37;77.27;;;25.07;;
37527;SDS011;23372;52.050;4.810;2023-12-07T11:54:03;67.30;;;23.07;;
37527;SDS011;23372;52.050;4.810;2023-12-07T11:56:29;79.00;;;26.27;;
37527;SDS011;23372;52.050;4.810;2023-12-07T11:58:55;72.33;;;25.57;;
37527;SDS011;23372;52.050;4.810;2023-12-07T12:01:24;71.00;;;24.13;;
37527;SDS011;23372;52.050;4.810;2023-12-07T12:03:50;69.33;;;24.53;;
37527;SDS011;23372;52.050;4.810;2023-12-07T12:06:15;71.10;;;25.13;;
37527;SDS011;23372;52.050;4.810;2023-12-07T12:08:41;79.23;;;24.70;;
37527;SDS011;23372;52.050;4.810;2023-12-07T12:11:07;76.40;;;27.03;;
37527;SDS011;23372;52.050;4.810;2023-12-07T12:13:34;76.97;;;26.77;;
37527;SDS011;23372;52.050;4.810;2023-12-07T12:16:00;80.23;;;27.67;;
37527;SDS011;23372;52.050;4.810;2023-12-07T12:18:26;72.00;;;25.23;;
37527;SDS011;23372;52.050;4.810;2023-12-07T12:20:53;76.97;;;28.23;;
37527;SDS011;23372;52.050;4.810;2023-12-07T12:23:19;64.67;;;23.23;;
37527;SDS011;23372;52.050;4.810;2023-12-07T12:25:45;75.07;;;25.80;;
37527;SDS011;23372;52.050;4.810;2023-12-07T12:28:11;71.50;;;25.20;;
37527;SDS011;23372;52.050;4.810;2023-12-07T12:30:41;67.60;;;25.03;;
37527;SDS011;23372;52.050;4.810;2023-12-07T12:33:07;63.83;;;24.40;;
37527;SDS011;23372;52.050;4.810;2023-12-07T12:35:32;74.83;;;25.73;;
37527;SDS011;23372;52.050;4.810;2023-12-07T12:37:58;66.30;;;23.37;;
37527;SDS011;23372;52.050;4.810;2023-12-07T12:40:26;61.80;;;24.13;;
37527;SDS011;23372;52.050;4.810;2023-12-07T12:42:54;64.67;;;23.50;;
37527;SDS011;23372;52.050;4.810;2023-12-07T12:45:20;67.87;;;24.27;;
37527;SDS011;23372;52.050;4.810;2023-12-07T12:47:47;57.93;;;21.87;;
37527;SDS011;23372;52.050;4.810;2023-12-07T12:50:32;59.37;;;24.10;;
37527;SDS011;23372;52.050;4.810;2023-12-07T12:53:11;58.27;;;24.43;;
37527;SDS011;23372;52.050;4.810;2023-12-07T12:55:38;59.93;;;23.70;;
37527;SDS011;23372;52.050;4.810;2023-12-07T12:58:06;63.83;;;22.20;;
37527;SDS011;23372;52.050;4.810;2023-12-07T13:00:33;66.40;;;24.27;;
37527;SDS011;23372;52.050;4.810;2023-12-07T13:03:03;70.27;;;25.73;;
37527;SDS011;23372;52.050;4.810;2023-12-07T13:05:31;72.70;;;28.07;;
37527;SDS011;23372;52.050;4.810;2023-12-07T13:08:00;68.10;;;25.93;;
37527;SDS011;23372;52.050;4.810;2023-12-07T13:10:26;63.50;;;23.17;;
37527;SDS011;23372;52.050;4.810;2023-12-07T13:12:52;67.17;;;25.57;;
37527;SDS011;23372;52.050;4.810;2023-12-07T13:15:17;77.33;;;26.87;;
37527;SDS011;23372;52.050;4.810;2023-12-07T13:17:43;71.73;;;27.70;;
37527;SDS011;23372;52.050;4.810;2023-12-07T13:20:09;67.17;;;26.00;;
37527;SDS011;23372;52.050;4.810;2023-12-07T13:22:36;72.63;;;26.63;;
37527;SDS011;23372;52.050;4.810;2023-12-07T13:25:03;71.93;;;26.50;;
37527;SDS011;23372;52.050;4.810;2023-12-07T13:27:30;66.47;;;25.60;;
37527;SDS011;23372;52.050;4.810;2023-12-07T13:29:57;56.93;;;24.53;;
37527;SDS011;23372;52.050;4.810;2023-12-07T13:32:23;63.73;;;24.20;;
37527;SDS011;23372;52.050;4.810;2023-12-07T13:34:48;64.53;;;22.63;;
37527;SDS011;23372;52.050;4.810;2023-12-07T13:37:14;62.63;;;22.57;;
37527;SDS011;23372;52.050;4.810;2023-12-07T13:39:39;66.80;;;25.07;;
37527;SDS011;23372;52.050;4.810;2023-12-07T13:42:07;64.93;;;23.93;;
37527;SDS011;23372;52.050;4.810;2023-12-07T13:44:34;61.87;;;26.13;;
37527;SDS011;23372;52.050;4.810;2023-12-07T13:47:00;60.47;;;23.70;;
37527;SDS011;23372;52.050;4.810;2023-12-07T13:49:26;58.83;;;22.27;;
37527;SDS011;23372;52.050;4.810;2023-12-07T13:51:51;58.77;;;22.40;;
37527;SDS011;23372;52.050;4.810;2023-12-07T13:54:17;59.70;;;23.40;;
37527;SDS011;23372;52.050;4.810;2023-12-07T13:56:42;55.67;;;23.63;;
37527;SDS011;23372;52.050;4.810;2023-12-07T13:59:08;63.27;;;23.63;;
37527;SDS011;23372;52.050;4.810;2023-12-07T14:01:35;60.07;;;23.50;;
37527;SDS011;23372;52.050;4.810;2023-12-07T14:04:01;53.97;;;22.67;;
37527;SDS011;23372;52.050;4.810;2023-12-07T14:06:27;53.60;;;23.20;;
37527;SDS011;23372;52.050;4.810;2023-12-07T14:08:53;53.57;;;22.30;;
37527;SDS011;23372;52.050;4.810;2023-12-07T14:11:18;57.23;;;22.80;;
37527;SDS011;23372;52.050;4.810;2023-12-07T14:13:44;55.17;;;24.40;;
37527;SDS011;23372;52.050;4.810;2023-12-07T14:16:13;60.07;;;23.77;;
37527;SDS011;23372;52.050;4.810;2023-12-07T14:18:39;60.37;;;23.63;;
37527;SDS011;23372;52.050;4.810;2023-12-07T14:21:05;52.60;;;22.53;;
37527;SDS011;23372;52.050;4.810;2023-12-07T14:23:30;54.50;;;23.00;;